sensor_id;sensor_type;location;lat;lon;timestamp;pressure;altitude;pressure_sealevel;temperature;humidity
60583;BME280;46415;47.536;19.066;2023-04-28T00:00:11;-18366.19;;;5.02;85.90
60583;BME280;46415;47.536;19.066;2023-04-28T00:03:15;-18365.38;;;4.99;84.87
60583;BME280;46415;47.536;19.066;2023-04-28T00:06:18;-18363.72;;;4.93;85.73
60583;BME280;46415;47.536;19.066;2023-04-28T00:09:21;-18362.19;;;4.87;85.78
60583;BME280;46415;47.536;19.066;2023-04-28T00:12:23;-18361.38;;;4.84;85.87
60583;BME280;46415;47.536;19.066;2023-04-28T00:15:26;-18359.03;;;4.76;87.39
60583;BME280;46415;47.536;19.066;2023-04-28T00:18:29;-18357.78;;;4.71;87.50
60583;BME280;46415;47.536;19.066;2023-04-28T00:21:32;-18356.69;;;4.67;87.64
60583;BME280;46415;47.536;19.066;2023-04-28T00:24:36;-18354.63;;;4.60;89.53
60583;BME280;46415;47.536;19.066;2023-04-28T00:27:39;-18353.25;;;4.55;89.59
60583;BME280;46415;47.536;19.066;2023-04-28T00:30:41;-18351.88;;;4.49;90.68
60583;BME280;46415;47.536;19.066;2023-04-28T00:33:44;-18348.59;;;4.37;91.25
60583;BME280;46415;47.536;19.066;2023-04-28T00:36:47;-18346.09;;;4.28;90.73
60583;BME280;46415;47.536;19.066;2023-04-28T00:39:54;-18345.97;;;4.28;91.42
60583;BME280;46415;47.536;19.066;2023-04-28T00:42:57;-18346.94;;;4.31;90.71
60583;BME280;46415;47.536;19.066;2023-04-28T00:46:01;-18346.25;;;4.29;92.03
60583;BME280;46415;47.536;19.066;2023-04-28T00:49:04;-18347.22;;;4.32;92.30
60583;BME280;46415;47.536;19.066;2023-04-28T00:52:08;-18346.94;;;4.31;94.02
60583;BME280;46415;47.536;19.066;2023-04-28T00:55:14;-18347.63;;;4.34;93.91
60583;BME280;46415;47.536;19.066;2023-04-28T00:58:18;-18345.41;;;4.26;95.04
60583;BME280;46415;47.536;19.066;2023-04-28T01:01:20;-18341.97;;;4.13;95.59
60583;BME280;46415;47.536;19.066;2023-04-28T01:04:25;-18340.59;;;4.08;97.33
60583;BME280;46415;47.536;19.066;2023-04-28T01:07:28;-18339.66;;;4.04;96.95
60583;BME280;46415;47.536;19.066;2023-04-28T01:10:31;-18338.13;;;3.99;98.25
60583;BME280;46415;47.536;19.066;2023-04-28T01:13:36;-18337.31;;;3.96;95.92
60583;BME280;46415;47.536;19.066;2023-04-28T01:16:39;-18338.00;;;3.98;96.23
60583;BME280;46415;47.536;19.066;2023-04-28T01:19:43;-18337.31;;;3.96;98.40
60583;BME280;46415;47.536;19.066;2023-04-28T01:22:45;-18335.22;;;3.88;99.24
60583;BME280;46415;47.536;19.066;2023-04-28T01:25:48;-18336.47;;;3.93;99.47
60583;BME280;46415;47.536;19.066;2023-04-28T01:28:52;-18335.09;;;3.88;100.00
60583;BME280;46415;47.536;19.066;2023-04-28T01:31:55;-18334.41;;;3.85;100.00
60583;BME280;46415;47.536;19.066;2023-04-28T01:34:58;-18333.19;;;3.81;100.00
60583;BME280;46415;47.536;19.066;2023-04-28T01:38:00;-18333.19;;;3.81;100.00
60583;BME280;46415;47.536;19.066;2023-04-28T01:41:04;-18332.63;;;3.79;100.00
60583;BME280;46415;47.536;19.066;2023-04-28T01:44:06;-18331.53;;;3.75;100.00
60583;BME280;46415;47.536;19.066;2023-04-28T01:47:09;-18329.88;;;3.68;100.00
60583;BME280;46415;47.536;19.066;2023-04-28T01:50:12;-18329.88;;;3.68;100.00
60583;BME280;46415;47.536;19.066;2023-04-28T01:53:15;-18327.94;;;3.61;100.00
60583;BME280;46415;47.536;19.066;2023-04-28T01:56:22;-18326.84;;;3.57;100.00
60583;BME280;46415;47.536;19.066;2023-04-28T01:59:25;-18326.16;;;3.55;100.00
60583;BME280;46415;47.536;19.066;2023-04-28T02:02:28;-18324.78;;;3.50;100.00
60583;BME280;46415;47.536;19.066;2023-04-28T02:05:31;-18323.53;;;3.45;100.00
60583;BME280;46415;47.536;19.066;2023-04-28T02:08:34;-18322.44;;;3.41;100.00
60583;BME280;46415;47.536;19.066;2023-04-28T02:11:37;-18322.84;;;3.43;100.00
60583;BME280;46415;47.536;19.066;2023-04-28T02:14:39;-18322.84;;;3.43;100.00
60583;BME280;46415;47.536;19.066;2023-04-28T02:17:42;-18322.72;;;3.42;100.00
60583;BME280;46415;47.536;19.066;2023-04-28T02:20:45;-18323.53;;;3.45;100.00
60583;BME280;46415;47.536;19.066;2023-04-28T02:23:48;-18324.50;;;3.49;100.00
60583;BME280;46415;47.536;19.066;2023-04-28T02:26:51;-18323.94;;;3.47;100.00
60583;BME280;46415;47.536;19.066;2023-04-28T02:29:55;-18323.41;;;3.45;100.00
60583;BME280;46415;47.536;19.066;2023-04-28T02:32:57;-18322.28;;;3.41;100.00
60583;BME280;46415;47.536;19.066;2023-04-28T02:36:02;-18319.69;;;3.31;100.00
60583;BME280;46415;47.536;19.066;2023-04-28T02:39:05;-18315.69;;;3.16;100.00
60583;BME280;46415;47.536;19.066;2023-04-28T02:42:08;-18315.56;;;3.16;100.00
60583;BME280;46415;47.536;19.066;2023-04-28T02:45:13;-18316.53;;;3.19;100.00
60583;BME280;46415;47.536;19.066;2023-04-28T02:48:16;-18314.72;;;3.13;100.00
60583;BME280;46415;47.536;19.066;2023-04-28T02:51:18;-18313.22;;;3.07;100.00
60583;BME280;46415;47.536;19.066;2023-04-28T02:54:21;-18313.06;;;3.07;100.00
60583;BME280;46415;47.536;19.066;2023-04-28T02:57:30;-18312.81;;;3.06;100.00
60583;BME280;46415;47.536;19.066;2023-04-28T03:00:33;-18314.59;;;3.12;100.00
60583;BME280;46415;47.536;19.066;2023-04-28T03:03:36;-18316.53;;;3.19;100.00
60583;BME280;46415;47.536;19.066;2023-04-28T03:06:40;-18318.03;;;3.25;100.00
60583;BME280;46415;47.536;19.066;2023-04-28T03:09:43;-18316.09;;;3.18;100.00
60583;BME280;46415;47.536;19.066;2023-04-28T03:12:48;-18316.66;;;3.20;100.00
60583;BME280;46415;47.536;19.066;2023-04-28T03:15:52;-18316.78;;;3.20;100.00
60583;BME280;46415;47.536;19.066;2023-04-28T03:18:55;-18314.44;;;3.12;100.00
60583;BME280;46415;47.536;19.066;2023-04-28T03:21:57;-18313.22;;;3.07;100.00
60583;BME280;46415;47.536;19.066;2023-04-28T03:25:01;-18312.38;;;3.04;100.00
60583;BME280;46415;47.536;19.066;2023-04-28T03:28:04;-18312.81;;;3.06;100.00
60583;BME280;46415;47.536;19.066;2023-04-28T03:31:07;-18313.06;;;3.07;100.00
60583;BME280;46415;47.536;19.066;2023-04-28T03:34:10;-18312.13;;;3.03;100.00
60583;BME280;46415;47.536;19.066;2023-04-28T03:37:14;-18312.38;;;3.04;100.00
60583;BME280;46415;47.536;19.066;2023-04-28T03:40:16;-18312.81;;;3.06;100.00
60583;BME280;46415;47.536;19.066;2023-04-28T03:43:22;-18314.03;;;3.10;100.00
60583;BME280;46415;47.536;19.066;2023-04-28T03:46:26;-18314.44;;;3.12;100.00
60583;BME280;46415;47.536;19.066;2023-04-28T03:49:29;-18315.56;;;3.16;100.00
60583;BME280;46415;47.536;19.066;2023-04-28T03:52:32;-18317.91;;;3.24;100.00
60583;BME280;46415;47.536;19.066;2023-04-28T03:55:35;-18319.13;;;3.29;100.00
60583;BME280;46415;47.536;19.066;2023-04-28T03:58:38;-18320.38;;;3.34;100.00
60583;BME280;46415;47.536;19.066;2023-04-28T04:01:41;-18323.69;;;3.46;100.00
60583;BME280;46415;47.536;19.066;2023-04-28T04:04:45;-18322.03;;;3.40;100.00
60583;BME280;46415;47.536;19.066;2023-04-28T04:07:49;-18318.84;;;3.28;100.00
60583;BME280;46415;47.536;19.066;2023-04-28T04:10:53;-18319.53;;;3.31;100.00
60583;BME280;46415;47.536;19.066;2023-04-28T04:13:57;-18321.63;;;3.38;100.00
60583;BME280;46415;47.536;19.066;2023-04-28T04:17:00;-18324.37;;;3.48;100.00
60583;BME280;46415;47.536;19.066;2023-04-28T04:20:04;-18328.09;;;3.62;100.00
60583;BME280;46415;47.536;19.066;2023-04-28T04:23:08;-18330.00;;;3.69;100.00
60583;BME280;46415;47.536;19.066;2023-04-28T04:26:12;-18333.03;;;3.80;100.00
60583;BME280;46415;47.536;19.066;2023-04-28T04:29:15;-18334.56;;;3.86;100.00
60583;BME280;46415;47.536;19.066;2023-04-28T04:32:17;-18336.75;;;3.94;100.00
60583;BME280;46415;47.536;19.066;2023-04-28T04:35:20;-18339.66;;;4.04;100.00
60583;BME280;46415;47.536;19.066;2023-04-28T04:38:23;-18343.22;;;4.18;100.00
60583;BME280;46415;47.536;19.066;2023-04-28T04:41:26;-18348.72;;;4.38;100.00
60583;BME280;46415;47.536;19.066;2023-04-28T04:44:30;-18356.41;;;4.66;100.00
60583;BME280;46415;47.536;19.066;2023-04-28T04:47:33;-18364.25;;;4.95;100.00
60583;BME280;46415;47.536;19.066;2023-04-28T04:50:36;-18372.22;;;5.24;99.55
60583;BME280;46415;47.536;19.066;2023-04-28T04:53:45;-18375.53;;;5.37;99.06
60583;BME280;46415;47.536;19.066;2023-04-28T04:56:48;-18380.63;;;5.55;97.67
60583;BME280;46415;47.536;19.066;2023-04-28T04:59:52;-18388.19;;;5.83;96.71
60583;BME280;46415;47.536;19.066;2023-04-28T05:02:55;-18396.56;;;6.14;93.91
60583;BME280;46415;47.536;19.066;2023-04-28T05:05:58;-18397.53;;;6.18;92.25
60583;BME280;46415;47.536;19.066;2023-04-28T05:09:01;-18400.00;;;6.27;92.09
60583;BME280;46415;47.536;19.066;2023-04-28T05:12:06;-18406.59;;;6.51;91.53
60583;BME280;46415;47.536;19.066;2023-04-28T05:15:10;-18412.91;;;6.74;90.89
60583;BME280;46415;47.536;19.066;2023-04-28T05:18:16;-18418.53;;;6.95;88.32
60583;BME280;46415;47.536;19.066;2023-04-28T05:21:19;-18418.69;;;6.95;89.71
60583;BME280;46415;47.536;19.066;2023-04-28T05:24:23;-18427.19;;;7.27;87.08
60583;BME280;46415;47.536;19.066;2023-04-28T05:27:26;-18439.41;;;7.72;85.62
60583;BME280;46415;47.536;19.066;2023-04-28T05:30:29;-18444.22;;;7.90;81.63
60583;BME280;46415;47.536;19.066;2023-04-28T05:33:32;-18446.41;;;7.98;79.87
60583;BME280;46415;47.536;19.066;2023-04-28T05:36:35;-18446.69;;;7.99;78.66
60583;BME280;46415;47.536;19.066;2023-04-28T05:39:38;-18447.78;;;8.03;79.52
60583;BME280;46415;47.536;19.066;2023-04-28T05:42:41;-18447.91;;;8.03;79.62
60583;BME280;46415;47.536;19.066;2023-04-28T05:45:43;-18455.31;;;8.31;77.38
60583;BME280;46415;47.536;19.066;2023-04-28T05:48:47;-18459.44;;;8.46;77.08
60583;BME280;46415;47.536;19.066;2023-04-28T05:51:50;-18464.50;;;8.65;75.01
60583;BME280;46415;47.536;19.066;2023-04-28T05:54:53;-18472.34;;;8.93;72.51
60583;BME280;46415;47.536;19.066;2023-04-28T05:57:56;-18480.69;;;9.24;71.35
60583;BME280;46415;47.536;19.066;2023-04-28T06:00:59;-18488.38;;;9.53;68.35
60583;BME280;46415;47.536;19.066;2023-04-28T06:04:03;-18500.69;;;9.98;67.71
60583;BME280;46415;47.536;19.066;2023-04-28T06:07:07;-18505.34;;;10.15;65.04
60583;BME280;46415;47.536;19.066;2023-04-28T06:10:10;-18504.53;;;10.12;65.48
60583;BME280;46415;47.536;19.066;2023-04-28T06:13:13;-18502.62;;;10.05;64.12
60583;BME280;46415;47.536;19.066;2023-04-28T06:16:16;-18502.62;;;10.05;62.26
60583;BME280;46415;47.536;19.066;2023-04-28T06:19:21;-18513.44;;;10.45;60.98
60583;BME280;46415;47.536;19.066;2023-04-28T06:22:25;-18512.47;;;10.42;59.24
60583;BME280;46415;47.536;19.066;2023-04-28T06:25:28;-18516.59;;;10.57;59.97
60583;BME280;46415;47.536;19.066;2023-04-28T06:28:31;-18520.69;;;10.72;58.79
60583;BME280;46415;47.536;19.066;2023-04-28T06:31:34;-18528.38;;;11.00;58.14
60583;BME280;46415;47.536;19.066;2023-04-28T06:34:41;-18537.94;;;11.36;57.71
60583;BME280;46415;47.536;19.066;2023-04-28T06:37:43;-18534.25;;;11.22;55.65
60583;BME280;46415;47.536;19.066;2023-04-28T06:40:46;-18532.75;;;11.17;54.89
60583;BME280;46415;47.536;19.066;2023-04-28T06:43:50;-18543.13;;;11.55;56.01
60583;BME280;46415;47.536;19.066;2023-04-28T06:46:53;-18546.69;;;11.68;54.68
60583;BME280;46415;47.536;19.066;2023-04-28T06:49:55;-18551.63;;;11.86;54.00
60583;BME280;46415;47.536;19.066;2023-04-28T06:52:59;-18553.53;;;11.94;55.24
60583;BME280;46415;47.536;19.066;2023-04-28T06:56:04;-18552.03;;;11.88;53.22
60583;BME280;46415;47.536;19.066;2023-04-28T06:59:07;-18550.41;;;11.82;53.21
60583;BME280;46415;47.536;19.066;2023-04-28T07:02:11;-18555.19;;;12.00;53.82
60583;BME280;46415;47.536;19.066;2023-04-28T07:05:14;-18550.53;;;11.82;53.28
60583;BME280;46415;47.536;19.066;2023-04-28T07:08:18;-18556.00;;;12.03;53.19
60583;BME280;46415;47.536;19.066;2023-04-28T07:11:21;-18562.28;;;12.26;52.65
60583;BME280;46415;47.536;19.066;2023-04-28T07:14:24;-18565.16;;;12.37;51.78
60583;BME280;46415;47.536;19.066;2023-04-28T07:17:27;-18568.31;;;12.48;52.95
60583;BME280;46415;47.536;19.066;2023-04-28T07:20:30;-18569.13;;;12.51;52.74
60583;BME280;46415;47.536;19.066;2023-04-28T07:23:33;-18578.56;;;12.86;51.84
60583;BME280;46415;47.536;19.066;2023-04-28T07:26:36;-18587.59;;;13.20;50.08
60583;BME280;46415;47.536;19.066;2023-04-28T07:29:39;-18596.31;;;13.52;49.13
60583;BME280;46415;47.536;19.066;2023-04-28T07:32:42;-18603.56;;;13.79;47.32
60583;BME280;46415;47.536;19.066;2023-04-28T07:35:45;-18605.34;;;13.85;48.06
60583;BME280;46415;47.536;19.066;2023-04-28T07:38:49;-18603.16;;;13.77;47.24
60583;BME280;46415;47.536;19.066;2023-04-28T07:41:52;-18611.34;;;14.08;47.23
60583;BME280;46415;47.536;19.066;2023-04-28T07:44:56;-18623.09;;;14.51;46.82
60583;BME280;46415;47.536;19.066;2023-04-28T07:48:00;-18630.31;;;14.78;44.80
60583;BME280;46415;47.536;19.066;2023-04-28T07:51:03;-18626.78;;;14.65;44.92
60583;BME280;46415;47.536;19.066;2023-04-28T07:54:06;-18629.91;;;14.77;44.44
60583;BME280;46415;47.536;19.066;2023-04-28T07:57:09;-18628.00;;;14.69;43.97
60583;BME280;46415;47.536;19.066;2023-04-28T08:00:12;-18624.72;;;14.57;44.20
60583;BME280;46415;47.536;19.066;2023-04-28T08:03:16;-18620.34;;;14.41;45.06
60583;BME280;46415;47.536;19.066;2023-04-28T08:06:19;-18616.94;;;14.28;44.29
60583;BME280;46415;47.536;19.066;2023-04-28T08:09:23;-18617.75;;;14.31;44.20
60583;BME280;46415;47.536;19.066;2023-04-28T08:12:26;-18619.41;;;14.38;43.67
60583;BME280;46415;47.536;19.066;2023-04-28T08:15:29;-18628.81;;;14.73;43.87
60583;BME280;46415;47.536;19.066;2023-04-28T08:18:32;-18638.78;;;15.09;42.88
60583;BME280;46415;47.536;19.066;2023-04-28T08:21:35;-18631.69;;;14.83;43.53
60583;BME280;46415;47.536;19.066;2023-04-28T08:24:37;-18632.50;;;14.86;40.40
60583;BME280;46415;47.536;19.066;2023-04-28T08:27:40;-18633.72;;;14.91;40.22
60583;BME280;46415;47.536;19.066;2023-04-28T08:30:43;-18629.22;;;14.74;39.47
60583;BME280;46415;47.536;19.066;2023-04-28T08:33:46;-18641.22;;;15.19;39.37
60583;BME280;46415;47.536;19.066;2023-04-28T08:36:52;-18644.50;;;15.31;37.40
60583;BME280;46415;47.536;19.066;2023-04-28T08:39:55;-18646.13;;;15.37;36.23
60583;BME280;46415;47.536;19.066;2023-04-28T08:43:03;-18645.31;;;15.34;37.68
60583;BME280;46415;47.536;19.066;2023-04-28T08:46:06;-18648.03;;;15.44;38.79
60583;BME280;46415;47.536;19.066;2023-04-28T08:49:17;-18656.91;;;15.77;37.86
60583;BME280;46415;47.536;19.066;2023-04-28T08:52:20;-18656.09;;;15.74;35.68
60583;BME280;46415;47.536;19.066;2023-04-28T08:55:24;-18663.19;;;16.00;34.99
60583;BME280;46415;47.536;19.066;2023-04-28T08:58:28;-18676.69;;;16.50;34.33
60583;BME280;46415;47.536;19.066;2023-04-28T09:01:31;-18677.75;;;16.54;32.63
60583;BME280;46415;47.536;19.066;2023-04-28T09:04:34;-18681.31;;;16.67;32.35
60583;BME280;46415;47.536;19.066;2023-04-28T09:07:38;-18681.31;;;16.67;32.09
60583;BME280;46415;47.536;19.066;2023-04-28T09:10:41;-18674.91;;;16.44;32.61
60583;BME280;46415;47.536;19.066;2023-04-28T09:13:44;-18684.03;;;16.78;32.70
60583;BME280;46415;47.536;19.066;2023-04-28T09:16:47;-18690.28;;;17.01;32.30
60583;BME280;46415;47.536;19.066;2023-04-28T09:19:50;-18690.84;;;17.03;32.93
60583;BME280;46415;47.536;19.066;2023-04-28T09:22:55;-18700.91;;;17.40;32.11
60583;BME280;46415;47.536;19.066;2023-04-28T09:26:06;-18708.41;;;17.68;31.73
60583;BME280;46415;47.536;19.066;2023-04-28T09:29:12;-18702.28;;;17.45;30.73
60583;BME280;46415;47.536;19.066;2023-04-28T09:32:20;-18707.72;;;17.66;30.75
60583;BME280;46415;47.536;19.066;2023-04-28T09:35:38;-18709.34;;;17.72;31.49
60583;BME280;46415;47.536;19.066;2023-04-28T09:38:43;-18720.66;;;18.14;30.85
60583;BME280;46415;47.536;19.066;2023-04-28T09:41:47;-18721.59;;;18.17;30.52
60583;BME280;46415;47.536;19.066;2023-04-28T09:44:53;-18728.66;;;18.44;30.59
60583;BME280;46415;47.536;19.066;2023-04-28T09:48:08;-18724.72;;;18.29;30.28
60583;BME280;46415;47.536;19.066;2023-04-28T09:51:19;-18724.59;;;18.28;31.29
60583;BME280;46415;47.536;19.066;2023-04-28T09:54:25;-18724.19;;;18.27;30.35
60583;BME280;46415;47.536;19.066;2023-04-28T09:57:31;-18708.81;;;17.70;31.62
60583;BME280;46415;47.536;19.066;2023-04-28T10:00:35;-18719.28;;;18.09;31.40
60583;BME280;46415;47.536;19.066;2023-04-28T10:03:39;-18732.06;;;18.56;30.50
60583;BME280;46415;47.536;19.066;2023-04-28T10:06:42;-18730.03;;;18.49;30.32
60583;BME280;46415;47.536;19.066;2023-04-28T10:09:48;-18735.34;;;18.68;30.52
60583;BME280;46415;47.536;19.066;2023-04-28T10:12:52;-18731.66;;;18.55;30.42
60583;BME280;46415;47.536;19.066;2023-04-28T10:16:05;-18725.41;;;18.31;30.79
60583;BME280;46415;47.536;19.066;2023-04-28T10:19:09;-18728.66;;;18.44;30.27
60583;BME280;46415;47.536;19.066;2023-04-28T10:25:35;-18714.81;;;17.92;30.73
60583;BME280;46415;47.536;19.066;2023-04-28T10:28:48;-18707.72;;;17.66;31.28
60583;BME280;46415;47.536;19.066;2023-04-28T10:32:21;-18707.72;;;17.66;31.82
60583;BME280;46415;47.536;19.066;2023-04-28T10:38:35;-18712.34;;;17.83;30.37
60583;BME280;46415;47.536;19.066;2023-04-28T10:41:38;-18719.84;;;18.11;31.11
60583;BME280;46415;47.536;19.066;2023-04-28T10:44:41;-18734.94;;;18.67;30.15
60583;BME280;46415;47.536;19.066;2023-04-28T10:48:00;-18752.06;;;19.31;29.35
60583;BME280;46415;47.536;19.066;2023-04-28T10:54:15;-18754.22;;;19.39;28.04
60583;BME280;46415;47.536;19.066;2023-04-28T10:57:19;-18736.16;;;18.71;29.29
60583;BME280;46415;47.536;19.066;2023-04-28T11:00:27;-18748.53;;;19.17;28.96
60583;BME280;46415;47.536;19.066;2023-04-28T11:07:10;-18770.81;;;20.01;28.20
60583;BME280;46415;47.536;19.066;2023-04-28T11:10:16;-18790.06;;;20.72;27.73
60583;BME280;46415;47.536;19.066;2023-04-28T11:13:28;-18785.72;;;20.56;27.83
60583;BME280;46415;47.536;19.066;2023-04-28T11:17:08;-18765.38;;;19.80;28.61
60583;BME280;46415;47.536;19.066;2023-04-28T11:20:11;-18742.69;;;18.96;28.97
60583;BME280;46415;47.536;19.066;2023-04-28T11:23:15;-18742.53;;;18.95;29.12
60583;BME280;46415;47.536;19.066;2023-04-28T11:26:19;-18751.91;;;19.30;29.63
60583;BME280;46415;47.536;19.066;2023-04-28T11:29:38;-18753.53;;;19.36;29.50
60583;BME280;46415;47.536;19.066;2023-04-28T11:32:42;-18755.19;;;19.42;29.08
60583;BME280;46415;47.536;19.066;2023-04-28T11:35:44;-18750.28;;;19.24;29.82
60583;BME280;46415;47.536;19.066;2023-04-28T11:38:48;-18728.13;;;18.42;30.66
60583;BME280;46415;47.536;19.066;2023-04-28T11:41:51;-18719.56;;;18.10;31.31
60583;BME280;46415;47.536;19.066;2023-04-28T11:44:54;-18720.66;;;18.14;31.08
60583;BME280;46415;47.536;19.066;2023-04-28T11:47:57;-18721.59;;;18.17;31.66
60583;BME280;46415;47.536;19.066;2023-04-28T11:51:03;-18730.03;;;18.49;31.16
60583;BME280;46415;47.536;19.066;2023-04-28T11:54:06;-18736.56;;;18.73;31.09
60583;BME280;46415;47.536;19.066;2023-04-28T11:57:20;-18727.84;;;18.41;31.52
60583;BME280;46415;47.536;19.066;2023-04-28T12:00:23;-18734.25;;;18.64;31.27
60583;BME280;46415;47.536;19.066;2023-04-28T12:03:28;-18744.44;;;19.02;30.87
60583;BME280;46415;47.536;19.066;2023-04-28T12:06:31;-18745.81;;;19.07;31.26
60583;BME280;46415;47.536;19.066;2023-04-28T12:09:37;-18754.09;;;19.38;30.91
60583;BME280;46415;47.536;19.066;2023-04-28T12:12:40;-18757.09;;;19.49;29.97
60583;BME280;46415;47.536;19.066;2023-04-28T12:15:53;-18736.97;;;18.74;31.19
60583;BME280;46415;47.536;19.066;2023-04-28T12:19:00;-18730.97;;;18.52;31.89
60583;BME280;46415;47.536;19.066;2023-04-28T12:22:05;-18722.00;;;18.19;32.46
60583;BME280;46415;47.536;19.066;2023-04-28T12:25:10;-18719.41;;;18.09;32.26
60583;BME280;46415;47.536;19.066;2023-04-28T12:28:14;-18719.97;;;18.11;32.68
60583;BME280;46415;47.536;19.066;2023-04-28T12:31:17;-18724.59;;;18.28;33.11
60583;BME280;46415;47.536;19.066;2023-04-28T12:34:20;-18727.03;;;18.37;32.33
60583;BME280;46415;47.536;19.066;2023-04-28T12:37:22;-18732.34;;;18.57;32.40
60583;BME280;46415;47.536;19.066;2023-04-28T12:40:25;-18733.28;;;18.61;32.55
60583;BME280;46415;47.536;19.066;2023-04-28T12:43:28;-18739.69;;;18.85;32.54
60583;BME280;46415;47.536;19.066;2023-04-28T12:46:31;-18751.78;;;19.30;32.15
60583;BME280;46415;47.536;19.066;2023-04-28T12:49:34;-18758.72;;;19.55;31.40
60583;BME280;46415;47.536;19.066;2023-04-28T12:52:38;-18760.19;;;19.61;31.46
60583;BME280;46415;47.536;19.066;2023-04-28T12:55:40;-18760.75;;;19.63;31.76
60583;BME280;46415;47.536;19.066;2023-04-28T12:58:43;-18762.94;;;19.71;31.20
60583;BME280;46415;47.536;19.066;2023-04-28T13:01:47;-18768.63;;;19.92;30.80
60583;BME280;46415;47.536;19.066;2023-04-28T13:04:50;-18768.22;;;19.91;31.23
60583;BME280;46415;47.536;19.066;2023-04-28T13:07:53;-18764.56;;;19.77;31.15
60583;BME280;46415;47.536;19.066;2023-04-28T13:10:56;-18767.00;;;19.86;31.25
60583;BME280;46415;47.536;19.066;2023-04-28T13:13:59;-18766.31;;;19.84;31.11
60583;BME280;46415;47.536;19.066;2023-04-28T13:17:02;-18765.50;;;19.81;32.07
60583;BME280;46415;47.536;19.066;2023-04-28T13:20:06;-18776.22;;;20.21;31.07
60583;BME280;46415;47.536;19.066;2023-04-28T13:23:09;-18785.19;;;20.54;30.80
60583;BME280;46415;47.536;19.066;2023-04-28T13:26:12;-18779.91;;;20.34;31.04
60583;BME280;46415;47.536;19.066;2023-04-28T13:29:15;-18768.22;;;19.91;31.09
60583;BME280;46415;47.536;19.066;2023-04-28T13:32:17;-18760.88;;;19.64;31.54
60583;BME280;46415;47.536;19.066;2023-04-28T13:35:21;-18747.56;;;19.14;31.82
60583;BME280;46415;47.536;19.066;2023-04-28T13:38:24;-18733.28;;;18.61;32.99
60583;BME280;46415;47.536;19.066;2023-04-28T13:41:27;-18717.66;;;18.03;33.93
60583;BME280;46415;47.536;19.066;2023-04-28T13:44:31;-18713.31;;;17.86;33.87
60583;BME280;46415;47.536;19.066;2023-04-28T13:47:34;-18709.09;;;17.71;34.07
60583;BME280;46415;47.536;19.066;2023-04-28T13:50:37;-18714.81;;;17.92;34.32
60583;BME280;46415;47.536;19.066;2023-04-28T13:53:41;-18719.41;;;18.09;34.18
60583;BME280;46415;47.536;19.066;2023-04-28T13:56:43;-18723.91;;;18.26;33.42
60583;BME280;46415;47.536;19.066;2023-04-28T13:59:47;-18727.31;;;18.39;33.04
60583;BME280;46415;47.536;19.066;2023-04-28T14:02:49;-18742.53;;;18.95;32.75
60583;BME280;46415;47.536;19.066;2023-04-28T14:05:55;-18749.59;;;19.22;31.62
60583;BME280;46415;47.536;19.066;2023-04-28T14:08:58;-18750.97;;;19.27;31.58
60583;BME280;46415;47.536;19.066;2023-04-28T14:12:01;-18759.13;;;19.57;31.58
60583;BME280;46415;47.536;19.066;2023-04-28T14:15:07;-18761.03;;;19.64;31.81
60583;BME280;46415;47.536;19.066;2023-04-28T14:18:10;-18758.84;;;19.56;31.77
60583;BME280;46415;47.536;19.066;2023-04-28T14:21:14;-18745.41;;;19.06;32.23
60583;BME280;46415;47.536;19.066;2023-04-28T14:24:18;-18740.50;;;18.88;32.40
60583;BME280;46415;47.536;19.066;2023-04-28T14:27:21;-18723.38;;;18.24;33.13
60583;BME280;46415;47.536;19.066;2023-04-28T14:30:25;-18716.97;;;18.00;35.01
60583;BME280;46415;47.536;19.066;2023-04-28T14:33:28;-18714.66;;;17.91;34.52
60583;BME280;46415;47.536;19.066;2023-04-28T14:36:31;-18713.03;;;17.85;35.57
60583;BME280;46415;47.536;19.066;2023-04-28T14:39:40;-18711.00;;;17.78;35.13
60583;BME280;46415;47.536;19.066;2023-04-28T14:42:43;-18715.75;;;17.95;35.06
60583;BME280;46415;47.536;19.066;2023-04-28T14:45:46;-18718.59;;;18.06;35.34
60583;BME280;46415;47.536;19.066;2023-04-28T14:48:49;-18722.00;;;18.19;35.13
60583;BME280;46415;47.536;19.066;2023-04-28T14:51:53;-18725.13;;;18.30;34.64
60583;BME280;46415;47.536;19.066;2023-04-28T14:54:57;-18720.50;;;18.13;35.62
60583;BME280;46415;47.536;19.066;2023-04-28T14:58:00;-18721.72;;;18.18;35.38
60583;BME280;46415;47.536;19.066;2023-04-28T15:01:03;-18720.25;;;18.12;36.00
60583;BME280;46415;47.536;19.066;2023-04-28T15:04:07;-18720.66;;;18.14;35.44
60583;BME280;46415;47.536;19.066;2023-04-28T15:07:12;-18718.59;;;18.06;36.19
60583;BME280;46415;47.536;19.066;2023-04-28T15:10:15;-18725.69;;;18.32;35.45
60583;BME280;46415;47.536;19.066;2023-04-28T15:13:18;-18722.69;;;18.21;35.35
60583;BME280;46415;47.536;19.066;2023-04-28T15:16:21;-18719.97;;;18.11;35.88
60583;BME280;46415;47.536;19.066;2023-04-28T15:19:24;-18715.88;;;17.96;35.90
60583;BME280;46415;47.536;19.066;2023-04-28T15:22:27;-18714.81;;;17.92;36.27
60583;BME280;46415;47.536;19.066;2023-04-28T15:25:30;-18714.66;;;17.91;36.21
60583;BME280;46415;47.536;19.066;2023-04-28T15:28:32;-18711.81;;;17.81;36.36
60583;BME280;46415;47.536;19.066;2023-04-28T15:31:39;-18708.53;;;17.69;36.24
60583;BME280;46415;47.536;19.066;2023-04-28T15:34:43;-18708.00;;;17.67;36.71
60583;BME280;46415;47.536;19.066;2023-04-28T15:37:46;-18707.59;;;17.65;36.90
60583;BME280;46415;47.536;19.066;2023-04-28T15:40:49;-18698.75;;;17.32;37.61
60583;BME280;46415;47.536;19.066;2023-04-28T15:43:52;-18697.91;;;17.29;37.55
60583;BME280;46415;47.536;19.066;2023-04-28T15:46:57;-18694.09;;;17.15;38.39
60583;BME280;46415;47.536;19.066;2023-04-28T15:50:00;-18693.16;;;17.11;38.25
60583;BME280;46415;47.536;19.066;2023-04-28T15:53:02;-18690.56;;;17.02;39.83
60583;BME280;46415;47.536;19.066;2023-04-28T15:56:05;-18684.97;;;16.81;39.02
60583;BME280;46415;47.536;19.066;2023-04-28T15:59:09;-18685.25;;;16.82;40.28
60583;BME280;46415;47.536;19.066;2023-04-28T16:02:16;-18684.03;;;16.78;39.71
60583;BME280;46415;47.536;19.066;2023-04-28T16:05:20;-18686.88;;;16.88;39.33